createdAt,value
2018-08-28T00:01:58.844Z,1.47
2018-08-28T00:04:27.651Z,2.27
2018-08-28T00:06:56.599Z,2.10
2018-08-28T00:09:25.690Z,2.80
2018-08-28T00:11:54.676Z,2.90
2018-08-28T00:14:23.529Z,1.70
2018-08-28T00:16:52.936Z,2.30
2018-08-28T00:19:22.480Z,2.30
2018-08-28T00:21:51.318Z,3.30
2018-08-28T00:24:20.410Z,3.70
2018-08-28T00:26:49.185Z,2.00
2018-08-28T00:29:18.060Z,2.00
2018-08-28T00:31:46.924Z,1.97
2018-08-28T00:34:15.892Z,1.87
2018-08-28T00:36:44.727Z,2.33
2018-08-28T00:39:13.515Z,1.60
2018-08-28T00:41:42.420Z,1.63
2018-08-28T00:44:11.919Z,1.60
2018-08-28T00:46:40.704Z,4.07
2018-08-28T00:49:09.571Z,1.53
2018-08-28T00:51:38.425Z,2.30
2018-08-28T00:54:07.274Z,3.03
2018-08-28T00:56:36.043Z,1.80
2018-08-28T00:59:05.069Z,1.73
2018-08-28T01:01:33.931Z,2.73
2018-08-28T01:04:02.769Z,1.93
2018-08-28T01:06:31.528Z,3.20
2018-08-28T01:09:00.415Z,1.93
2018-08-28T01:11:29.283Z,2.90
2018-08-28T01:13:58.134Z,3.87
2018-08-28T01:16:27.219Z,2.73
2018-08-28T01:18:56.171Z,2.60
2018-08-28T01:21:25.116Z,2.00
2018-08-28T01:23:54.016Z,2.67
2018-08-28T01:26:22.792Z,2.13
2018-08-28T01:28:51.710Z,2.80
2018-08-28T01:31:20.761Z,4.30
2018-08-28T01:33:49.671Z,2.00
2018-08-28T01:36:18.444Z,2.70
2018-08-28T01:38:47.896Z,2.37
2018-08-28T01:41:16.799Z,2.27
2018-08-28T01:43:45.620Z,2.43
2018-08-28T01:46:14.766Z,3.43
2018-08-28T01:48:43.548Z,1.93
2018-08-28T01:51:12.465Z,1.70
2018-08-28T01:53:41.310Z,2.23
2018-08-28T01:56:10.120Z,1.83
2018-08-28T01:58:38.979Z,2.90
2018-08-28T02:01:07.784Z,1.97
2018-08-28T02:03:36.585Z,2.53
2018-08-28T02:06:05.420Z,2.20
2018-08-28T02:08:34.262Z,2.10
2018-08-28T02:11:03.207Z,1.90
2018-08-28T02:13:32.034Z,1.70
2018-08-28T02:16:00.947Z,2.60
2018-08-28T02:18:29.874Z,3.30
2018-08-28T02:20:58.734Z,2.97
2018-08-28T02:23:27.480Z,3.13
2018-08-28T02:25:56.390Z,5.53
2018-08-28T02:28:25.287Z,2.50
2018-08-28T02:30:54.133Z,2.83
2018-08-28T02:33:23.401Z,2.83
2018-08-28T02:35:52.120Z,2.70
2018-08-28T02:38:20.948Z,3.00
2018-08-28T02:40:49.816Z,3.00
2018-08-28T02:43:18.572Z,3.90
2018-08-28T02:45:47.448Z,4.77
2018-08-28T02:48:16.397Z,4.20
2018-08-28T02:50:45.249Z,4.53
2018-08-28T02:53:14.037Z,4.00
2018-08-28T02:55:42.932Z,4.30
2018-08-28T02:58:11.712Z,4.17
2018-08-28T03:00:40.505Z,4.33
2018-08-28T03:03:09.299Z,4.77
2018-08-28T03:05:38.124Z,6.77
2018-08-28T03:08:06.983Z,4.87
2018-08-28T03:10:35.770Z,4.53
2018-08-28T03:13:04.664Z,5.30
2018-08-28T03:15:33.557Z,5.43
2018-08-28T03:18:02.423Z,5.60
2018-08-28T03:20:31.227Z,4.70
2018-08-28T03:23:00.044Z,4.27
2018-08-28T03:25:28.939Z,5.50
2018-08-28T03:27:59.267Z,5.70
2018-08-28T03:30:28.159Z,5.83
2018-08-28T03:32:57.492Z,4.83
2018-08-28T03:35:26.303Z,5.43
2018-08-28T03:37:55.157Z,6.97
2018-08-28T03:40:23.959Z,6.33
2018-08-28T03:42:52.747Z,5.67
2018-08-28T03:45:21.703Z,5.87
2018-08-28T03:47:50.672Z,5.67
2018-08-28T03:50:19.882Z,6.13
2018-08-28T03:52:48.727Z,5.67
2018-08-28T03:55:17.569Z,6.30
2018-08-28T03:57:47.065Z,5.77
2018-08-28T04:00:16.723Z,7.27
2018-08-28T04:02:46.863Z,6.03
2018-08-28T04:05:15.646Z,5.93
2018-08-28T04:07:44.427Z,7.50
2018-08-28T04:10:13.300Z,5.07
2018-08-28T04:12:42.084Z,5.97
2018-08-28T04:15:10.880Z,9.07
2018-08-28T04:17:44.327Z,7.20
2018-08-28T04:20:13.156Z,5.33
2018-08-28T04:22:41.983Z,5.20
2018-08-28T04:25:11.467Z,6.13
2018-08-28T04:27:40.323Z,6.63
2018-08-28T04:30:09.128Z,6.03
2018-08-28T04:32:37.913Z,6.67
2018-08-28T04:35:06.694Z,6.30
2018-08-28T04:37:35.458Z,5.87
2018-08-28T04:40:04.640Z,5.23
2018-08-28T04:42:33.405Z,8.17
2018-08-28T04:45:02.159Z,5.97
2018-08-28T04:47:30.952Z,5.90
2018-08-28T04:49:59.736Z,7.60
2018-08-28T04:52:28.506Z,6.63
2018-08-28T04:54:57.318Z,8.30
2018-08-28T04:57:26.083Z,9.37
2018-08-28T04:59:54.846Z,6.93
2018-08-28T05:02:28.696Z,6.53
2018-08-28T05:04:57.559Z,7.40
2018-08-28T05:07:26.466Z,6.13
2018-08-28T05:09:55.247Z,5.73
2018-08-28T05:12:24.071Z,6.23
2018-08-28T05:14:52.821Z,8.03
2018-08-28T05:17:21.707Z,6.80
2018-08-28T05:19:50.572Z,5.67
2018-08-28T05:22:19.418Z,7.27
2018-08-28T05:24:48.182Z,7.70
2018-08-28T05:27:17.072Z,7.47
2018-08-28T05:29:45.965Z,9.30
2018-08-28T05:32:14.795Z,9.10
2018-08-28T05:34:44.106Z,7.90
2018-08-28T05:37:13.053Z,6.93
2018-08-28T05:39:41.876Z,6.10
2018-08-28T05:42:10.738Z,7.83
2018-08-28T05:44:39.579Z,8.27
2018-08-28T05:47:09.002Z,7.47
2018-08-28T05:49:38.498Z,8.00
2018-08-28T05:52:07.175Z,8.83
2018-08-28T05:54:35.943Z,8.80
2018-08-28T05:57:04.731Z,9.13
2018-08-28T05:59:33.512Z,10.77
2018-08-28T06:02:02.296Z,8.93
2018-08-28T06:04:31.055Z,8.83
2018-08-28T06:06:59.875Z,10.07
2018-08-28T06:09:28.651Z,10.50
2018-08-28T06:11:57.423Z,7.53
2018-08-28T06:14:26.188Z,7.90
2018-08-28T06:16:54.972Z,8.07
2018-08-28T06:19:23.755Z,8.73
2018-08-28T06:21:52.539Z,8.33
2018-08-28T06:24:21.344Z,7.27
2018-08-28T06:26:50.127Z,6.77
2018-08-28T06:29:18.917Z,8.63
2018-08-28T06:31:47.694Z,9.07
2018-08-28T06:34:16.481Z,8.00
2018-08-28T06:36:45.257Z,8.67
2018-08-28T06:39:14.019Z,9.67
2018-08-28T06:41:42.775Z,8.07
2018-08-28T06:44:11.559Z,11.30
2018-08-28T06:46:40.331Z,10.30
2018-08-28T06:49:09.113Z,9.20
2018-08-28T06:51:37.880Z,8.40
2018-08-28T06:54:06.660Z,7.83
2018-08-28T06:56:35.452Z,7.00
2018-08-28T06:59:04.227Z,8.10
2018-08-28T07:01:32.999Z,7.97
2018-08-28T07:04:01.902Z,8.17
2018-08-28T07:06:30.616Z,9.23
2018-08-28T07:08:59.416Z,8.43
2018-08-28T07:11:28.178Z,7.13
2018-08-28T07:13:56.990Z,8.87
2018-08-28T07:16:25.762Z,9.17
2018-08-28T07:18:54.632Z,8.33
2018-08-28T07:21:23.359Z,8.50
2018-08-28T07:23:52.636Z,11.73
2018-08-28T07:26:21.514Z,10.70
2018-08-28T07:28:50.304Z,9.33
2018-08-28T07:31:19.136Z,8.67
2018-08-28T07:33:47.888Z,10.07
2018-08-28T07:36:16.655Z,9.67
2018-08-28T07:38:45.438Z,9.10
2018-08-28T07:41:14.236Z,10.23
2018-08-28T07:43:43.017Z,9.57
2018-08-28T07:46:11.790Z,10.37
2018-08-28T07:48:40.604Z,10.47
2018-08-28T07:51:09.396Z,9.67
2018-08-28T07:53:38.215Z,10.13
2018-08-28T07:56:10.895Z,8.50
2018-08-28T07:58:46.540Z,11.13
2018-08-28T08:01:18.398Z,11.17
2018-08-28T08:03:54.012Z,11.00
2018-08-28T08:06:25.034Z,12.30
2018-08-28T08:08:55.773Z,9.50
2018-08-28T08:11:28.547Z,12.47
2018-08-28T08:14:02.330Z,10.30
2018-08-28T08:16:33.721Z,10.00
2018-08-28T08:19:08.979Z,11.70
2018-08-28T08:21:38.452Z,10.60
2018-08-28T08:26:58.287Z,10.90
2018-08-28T08:29:27.575Z,11.07
2018-08-28T08:32:03.080Z,9.87
2018-08-28T08:34:40.711Z,10.73
2018-08-28T08:37:13.068Z,7.80
2018-08-28T08:39:58.184Z,9.83
2018-08-28T08:42:40.349Z,8.60
2018-08-28T08:47:53.424Z,9.53
2018-08-28T08:50:27.064Z,9.80
2018-08-28T08:52:56.239Z,10.90
2018-08-28T08:55:31.655Z,11.50
2018-08-28T08:58:07.435Z,12.90
2018-08-28T09:00:50.784Z,11.00
2018-08-28T09:03:19.688Z,10.77
2018-08-28T09:05:48.492Z,8.60
2018-08-28T09:08:17.279Z,9.10
2018-08-28T09:10:46.081Z,11.07
2018-08-28T09:13:14.914Z,10.17
2018-08-28T09:15:43.672Z,10.43
2018-08-28T09:18:12.459Z,10.10
2018-08-28T09:20:41.220Z,10.90
2018-08-28T09:23:10.035Z,10.70
2018-08-28T09:25:38.769Z,16.40
2018-08-28T09:28:07.540Z,11.07
2018-08-28T09:30:36.333Z,10.77
2018-08-28T09:33:05.231Z,13.17
2018-08-28T09:35:34.037Z,10.23
2018-08-28T09:38:03.265Z,10.67
2018-08-28T09:40:32.021Z,9.97
2018-08-28T09:43:00.779Z,10.50
2018-08-28T09:45:29.548Z,10.97
2018-08-28T09:47:58.437Z,13.30
2018-08-28T09:50:27.162Z,11.33
2018-08-28T09:52:55.889Z,11.83
2018-08-28T09:55:24.670Z,11.77
2018-08-28T09:57:53.436Z,14.03
2018-08-28T10:00:27.583Z,10.33
2018-08-28T10:02:56.967Z,10.90
2018-08-28T10:05:25.840Z,10.33
2018-08-28T10:07:54.690Z,10.10
2018-08-28T10:10:23.796Z,13.17
2018-08-28T10:12:52.990Z,11.93
2018-08-28T10:15:21.767Z,11.27
2018-08-28T10:17:50.539Z,12.77
2018-08-28T10:20:19.329Z,11.07
2018-08-28T10:22:48.119Z,11.13
2018-08-28T10:25:16.898Z,12.23
2018-08-28T10:27:45.683Z,11.63
2018-08-28T10:30:14.487Z,13.27
2018-08-28T10:32:43.253Z,9.93
2018-08-28T10:35:12.007Z,9.97
2018-08-28T10:37:40.852Z,11.17
2018-08-28T10:40:09.639Z,9.27
2018-08-28T10:42:38.560Z,11.30
2018-08-28T10:45:07.356Z,10.47
2018-08-28T10:47:36.157Z,10.80
2018-08-28T10:50:05.129Z,10.13
2018-08-28T10:52:33.936Z,9.67
2018-08-28T10:55:02.742Z,10.13
2018-08-28T10:57:31.537Z,11.73
2018-08-28T11:00:00.399Z,11.33
2018-08-28T11:02:29.211Z,10.00
2018-08-28T11:04:58.004Z,10.43
2018-08-28T11:07:26.819Z,10.57
2018-08-28T11:09:55.590Z,13.27
2018-08-28T11:12:24.408Z,10.57
2018-08-28T11:14:53.209Z,11.67
2018-08-28T11:17:21.983Z,12.73
2018-08-28T11:19:50.867Z,12.57
2018-08-28T11:22:19.733Z,10.23
2018-08-28T11:24:48.467Z,12.47
2018-08-28T11:27:17.376Z,9.13
2018-08-28T11:29:46.165Z,12.00
2018-08-28T11:32:14.962Z,11.97
2018-08-28T11:34:43.740Z,10.37
2018-08-28T11:37:12.544Z,10.40
2018-08-28T11:39:41.340Z,11.77
2018-08-28T11:42:10.144Z,11.77
2018-08-28T11:44:38.933Z,11.40
2018-08-28T11:47:07.795Z,11.13
2018-08-28T11:49:36.528Z,9.83
2018-08-28T11:52:05.338Z,10.27
2018-08-28T11:54:34.124Z,10.70
2018-08-28T11:57:02.926Z,10.23
2018-08-28T11:59:31.707Z,9.87
2018-08-28T12:02:00.609Z,10.53
2018-08-28T12:04:29.367Z,10.10
2018-08-28T12:06:58.185Z,11.10
2018-08-28T12:09:26.930Z,10.00
2018-08-28T12:11:55.728Z,11.25
2018-08-28T12:14:24.523Z,10.65
2018-08-28T12:16:53.396Z,10.13
2018-08-28T12:19:22.189Z,10.50
2018-08-28T12:21:50.981Z,9.93
2018-08-28T12:24:19.871Z,10.05
2018-08-28T12:26:48.820Z,11.53
2018-08-28T12:29:17.527Z,11.30
2018-08-28T12:31:46.315Z,10.38
2018-08-28T12:34:15.077Z,10.78
2018-08-28T12:36:44.216Z,9.60
2018-08-28T12:39:12.919Z,10.68
2018-08-28T12:41:41.712Z,10.40
2018-08-28T12:44:10.626Z,9.93
2018-08-28T12:46:39.288Z,11.10
2018-08-28T12:49:08.200Z,10.20
2018-08-28T12:51:36.997Z,10.78
2018-08-28T12:54:05.931Z,11.95
2018-08-28T12:56:34.823Z,12.58
2018-08-28T12:59:03.619Z,12.25
2018-08-28T13:01:32.379Z,10.85
2018-08-28T13:04:01.243Z,9.88
2018-08-28T13:06:30.012Z,9.15
2018-08-28T13:08:58.782Z,9.38
2018-08-28T13:11:27.949Z,11.25
2018-08-28T13:13:56.776Z,9.50
2018-08-28T13:16:25.597Z,10.63
2018-08-28T13:18:54.403Z,9.33
2018-08-28T13:21:23.189Z,14.58
2018-08-28T13:23:52.001Z,9.90
2018-08-28T13:26:20.800Z,10.20
2018-08-28T13:28:49.701Z,33.48
2018-08-28T13:31:18.472Z,9.60
2018-08-28T13:33:47.289Z,20.90
2018-08-28T13:36:16.559Z,12.28
2018-08-28T13:38:45.340Z,8.90
2018-08-28T13:41:14.127Z,9.25
2018-08-28T13:43:42.921Z,11.40
2018-08-28T13:46:11.698Z,9.53
2018-08-28T13:48:40.524Z,11.03
2018-08-28T13:51:09.340Z,9.53
2018-08-28T13:53:38.201Z,10.50
2018-08-28T13:56:06.948Z,10.55
2018-08-28T13:58:36.377Z,9.50
2018-08-28T14:01:05.520Z,10.35
2018-08-28T14:03:34.284Z,9.20
2018-08-28T14:06:03.052Z,10.40
2018-08-28T14:08:31.912Z,9.75
2018-08-28T14:11:00.680Z,9.98
2018-08-28T14:13:29.578Z,10.65
2018-08-28T14:15:58.237Z,10.30
2018-08-28T14:18:27.035Z,9.83
2018-08-28T14:20:55.815Z,11.65
2018-08-28T14:23:24.590Z,10.72
2018-08-28T14:25:54.133Z,10.05
2018-08-28T14:28:22.955Z,9.93
2018-08-28T14:30:51.755Z,8.58
2018-08-28T14:33:20.553Z,12.37
2018-08-28T14:35:49.446Z,10.45
2018-08-28T14:38:18.228Z,10.28
2018-08-28T14:40:47.020Z,10.20
2018-08-28T14:43:15.822Z,9.80
2018-08-28T14:45:44.575Z,9.05
2018-08-28T14:48:13.363Z,9.53
2018-08-28T14:50:42.369Z,9.05
2018-08-28T14:53:11.512Z,9.40
2018-08-28T14:55:40.280Z,10.35
2018-08-28T14:58:09.036Z,9.83
2018-08-28T15:00:37.927Z,12.55
2018-08-28T15:03:06.752Z,10.05
2018-08-28T15:05:35.592Z,10.00
2018-08-28T15:08:04.423Z,12.20
2018-08-28T15:10:33.179Z,9.63
2018-08-28T15:13:01.956Z,10.88
2018-08-28T15:15:31.556Z,10.10
2018-08-28T15:18:00.327Z,9.98
2018-08-28T15:20:29.132Z,9.95
2018-08-28T15:22:57.920Z,9.85
2018-08-28T15:25:26.684Z,11.18
2018-08-28T15:27:55.884Z,12.03
2018-08-28T15:30:24.695Z,10.85
2018-08-28T15:32:53.553Z,9.45
2018-08-28T15:35:22.300Z,8.93
2018-08-28T15:37:51.208Z,11.60
2018-08-28T15:40:19.965Z,10.28
2018-08-28T15:42:48.742Z,10.28
2018-08-28T15:45:17.497Z,10.28
2018-08-28T15:47:46.303Z,10.32
2018-08-28T15:50:15.053Z,10.43
2018-08-28T15:52:43.826Z,9.68
2018-08-28T15:55:12.577Z,9.98
2018-08-28T15:57:41.342Z,9.35
2018-08-28T16:00:10.096Z,11.55
2018-08-28T16:02:38.938Z,10.38
2018-08-28T16:05:07.780Z,10.08
2018-08-28T16:07:36.552Z,9.65
2018-08-28T16:10:05.641Z,16.02
2018-08-28T16:12:34.425Z,11.15
2018-08-28T16:15:03.193Z,9.73
2018-08-28T16:17:31.992Z,10.82
2018-08-28T16:20:01.225Z,10.30
2018-08-28T16:22:33.003Z,10.65
2018-08-28T16:25:02.284Z,9.50
2018-08-28T16:27:31.064Z,9.93
2018-08-28T16:29:59.845Z,9.00
2018-08-28T16:32:28.679Z,10.88
2018-08-28T16:34:57.831Z,9.70
2018-08-28T16:37:26.605Z,9.88
2018-08-28T16:39:55.417Z,11.35
2018-08-28T16:42:24.195Z,9.88
2018-08-28T16:44:52.997Z,13.98
2018-08-28T16:47:21.841Z,10.90
2018-08-28T16:49:50.668Z,9.68
2018-08-28T16:52:19.479Z,9.80
2018-08-28T16:54:48.301Z,11.78
2018-08-28T16:57:17.148Z,11.55
2018-08-28T16:59:46.087Z,9.20
2018-08-28T17:02:14.874Z,10.60
2018-08-28T17:04:43.659Z,13.72
2018-08-28T17:07:12.484Z,10.93
2018-08-28T17:09:41.256Z,9.85
2018-08-28T17:12:10.451Z,11.60
2018-08-28T17:14:39.256Z,11.12
2018-08-28T17:17:08.347Z,11.83
2018-08-28T17:19:37.189Z,10.98
2018-08-28T17:22:06.036Z,10.28
2018-08-28T17:24:34.835Z,11.53
2018-08-28T17:27:03.620Z,14.00
2018-08-28T17:29:32.407Z,10.60
2018-08-28T17:32:01.361Z,12.18
2018-08-28T17:34:30.709Z,11.03
2018-08-28T17:36:59.597Z,13.27
2018-08-28T17:39:28.323Z,9.90
2018-08-28T17:41:57.151Z,9.30
2018-08-28T17:44:26.036Z,10.57
2018-08-28T17:46:54.825Z,11.27
2018-08-28T17:49:23.609Z,10.93
2018-08-28T17:51:52.460Z,10.53
2018-08-28T17:54:21.511Z,11.00
2018-08-28T17:56:50.345Z,10.67
2018-08-28T17:59:19.092Z,9.30
2018-08-28T18:01:47.928Z,10.37
2018-08-28T18:04:16.818Z,12.77
2018-08-28T18:06:45.626Z,12.37
2018-08-28T18:09:14.408Z,10.33
2018-08-28T18:11:43.737Z,11.83
2018-08-28T18:14:12.531Z,13.77
2018-08-28T18:16:41.327Z,11.67
2018-08-28T18:19:10.123Z,12.07
2018-08-28T18:21:41.827Z,11.90
2018-08-28T18:24:13.071Z,11.50
2018-08-28T18:26:45.000Z,13.50
2018-08-28T18:29:15.105Z,10.63
2018-08-28T18:31:44.837Z,11.73
2018-08-28T18:34:14.558Z,14.03
2018-08-28T18:36:44.497Z,10.80
2018-08-28T18:39:16.850Z,13.17
2018-08-28T18:41:46.190Z,12.47
2018-08-28T18:44:18.808Z,14.07
2018-08-28T18:46:49.506Z,11.90
2018-08-28T18:49:19.634Z,12.27
2018-08-28T18:51:49.663Z,13.23
2018-08-28T18:54:20.371Z,10.67
2018-08-28T18:56:51.061Z,10.67
2018-08-28T18:59:24.440Z,10.93
2018-08-28T19:01:56.853Z,12.73
2018-08-28T19:04:26.831Z,12.40
2018-08-28T19:06:57.206Z,11.27
2018-08-28T19:09:29.200Z,13.60
2018-08-28T19:12:07.831Z,11.80
2018-08-28T19:14:37.095Z,10.93
2018-08-28T19:17:08.018Z,14.77
2018-08-28T19:19:39.394Z,13.27
2018-08-28T19:22:09.740Z,12.20
2018-08-28T19:24:39.948Z,11.67
2018-08-28T19:27:10.939Z,12.00
2018-08-28T19:29:41.874Z,11.80
2018-08-28T19:32:10.707Z,11.00
2018-08-28T19:34:41.299Z,11.13
2018-08-28T19:38:15.037Z,12.43
2018-08-28T19:40:44.437Z,16.40
2018-08-28T19:43:15.609Z,11.40
2018-08-28T19:45:46.900Z,12.73
2018-08-28T19:48:16.873Z,12.77
2018-08-28T19:50:45.877Z,12.43
2018-08-28T19:53:17.586Z,13.30
2018-08-28T19:55:47.960Z,18.80
2018-08-28T19:58:16.776Z,15.90
2018-08-28T20:00:45.507Z,13.03
2018-08-28T20:03:14.270Z,15.13
2018-08-28T20:05:43.035Z,21.37
2018-08-28T20:08:11.815Z,16.03
2018-08-28T20:10:44.469Z,11.10
2018-08-28T20:13:15.705Z,13.57
2018-08-28T20:15:46.328Z,13.83
2018-08-28T20:18:17.176Z,13.10
2018-08-28T20:20:48.297Z,13.33
2018-08-28T20:23:17.029Z,12.77
2018-08-28T20:25:45.804Z,16.27
2018-08-28T20:28:14.581Z,13.27
2018-08-28T20:30:43.363Z,13.57
2018-08-28T20:33:12.138Z,15.30
2018-08-28T20:35:40.935Z,13.03
2018-08-28T20:38:09.740Z,15.90
2018-08-28T20:40:38.552Z,13.30
2018-08-28T20:43:07.344Z,16.30
2018-08-28T20:45:36.127Z,18.17
2018-08-28T20:48:05.051Z,11.83
2018-08-28T20:50:34.424Z,16.63
2018-08-28T20:53:03.227Z,13.13
2018-08-28T20:55:32.028Z,14.10
2018-08-28T20:58:00.883Z,12.57
2018-08-28T21:00:29.764Z,15.20
2018-08-28T21:02:58.567Z,13.17
2018-08-28T21:05:27.487Z,13.57
2018-08-28T21:07:57.268Z,15.50
2018-08-28T21:10:26.110Z,14.60
2018-08-28T21:12:54.967Z,15.83
2018-08-28T21:15:23.656Z,14.30
2018-08-28T21:17:52.921Z,13.63
2018-08-28T21:20:21.720Z,14.97
2018-08-28T21:22:50.531Z,15.33
2018-08-28T21:25:19.316Z,12.67
2018-08-28T21:27:48.631Z,15.20
2018-08-28T21:30:17.408Z,15.00
2018-08-28T21:32:46.200Z,11.13
2018-08-28T21:35:14.976Z,16.93
2018-08-28T21:37:43.777Z,14.63
2018-08-28T21:40:12.547Z,12.90
2018-08-28T21:42:41.327Z,11.37
2018-08-28T21:45:10.099Z,11.40
2018-08-28T21:47:38.915Z,16.70
2018-08-28T21:50:07.691Z,26.43
2018-08-28T21:52:36.704Z,20.97
2018-08-28T21:55:05.600Z,13.03
2018-08-28T21:57:34.616Z,14.13
2018-08-28T22:00:03.539Z,16.23
2018-08-28T22:02:32.351Z,14.93
2018-08-28T22:05:01.248Z,14.77
2018-08-28T22:07:35.326Z,13.37
2018-08-28T22:10:04.117Z,17.13
2018-08-28T22:12:32.908Z,14.43
2018-08-28T22:15:01.712Z,11.90
2018-08-28T22:17:30.475Z,14.17
2018-08-28T22:19:59.624Z,15.57
2018-08-28T22:22:28.507Z,14.90
2018-08-28T22:24:57.432Z,12.33
2018-08-28T22:27:26.244Z,12.77
2018-08-28T22:29:54.976Z,13.40
2018-08-28T22:32:23.783Z,18.87
2018-08-28T22:34:52.581Z,14.37
2018-08-28T22:37:21.392Z,14.37
2018-08-28T22:39:50.265Z,13.87
2018-08-28T22:42:19.080Z,12.67
2018-08-28T22:44:47.868Z,11.70
2018-08-28T22:47:16.683Z,12.07
2018-08-28T22:49:45.507Z,12.70
2018-08-28T22:52:14.295Z,14.63
2018-08-28T22:54:43.073Z,13.97
2018-08-28T22:57:12.163Z,13.33
2018-08-28T22:59:40.990Z,12.30
2018-08-28T23:02:09.907Z,12.07
2018-08-28T23:04:38.673Z,12.97
2018-08-28T23:07:07.496Z,13.83
2018-08-28T23:09:36.343Z,15.40
2018-08-28T23:12:05.178Z,14.73
2018-08-28T23:14:34.468Z,15.77
2018-08-28T23:17:03.227Z,12.83
2018-08-28T23:19:32.055Z,11.00
2018-08-28T23:22:00.833Z,11.40
2018-08-28T23:24:29.895Z,12.90
2018-08-28T23:26:58.712Z,12.00
2018-08-28T23:29:27.615Z,10.67
2018-08-28T23:31:56.390Z,11.63
2018-08-28T23:34:25.196Z,12.40
2018-08-28T23:36:53.991Z,12.43
2018-08-28T23:39:22.804Z,13.03
2018-08-28T23:41:51.564Z,11.27
2018-08-28T23:44:20.411Z,13.87
2018-08-28T23:46:49.200Z,12.63
2018-08-28T23:49:17.964Z,12.57
2018-08-28T23:51:46.728Z,10.97
2018-08-28T23:54:15.664Z,12.87
2018-08-28T23:56:44.503Z,11.90
2018-08-28T23:59:13.263Z,9.73
